DKFSF EDLW-

Flight info

Callsign DKFSF
Flight time N/A
Altitude
Route
Aircraft GLIDER

Departure

Time 2026-05-06 18:33
Airport Dortmund Airport (EDLW)

Arrival

Time N/A
Airport -
Time Latitude Longitude Altitude Speed Heading
2026-05-06 18:20 51.51312 7.60664 453 ft 13 kts 31°
2026-05-06 18:20 51.51428 7.60827 432 ft 31 kts 54°
2026-05-06 18:21 51.51498 7.61031 423 ft 0 kts 41°
2026-05-06 18:21 51.51527 7.61060 428 ft 8 kts
2026-05-06 18:21 51.51574 7.61026 422 ft 7 kts 294°
2026-05-06 18:21 51.51570 7.60951 424 ft 6 kts 253°
2026-05-06 18:22 51.51561 7.60903 423 ft 5 kts 253°
2026-05-06 18:22 51.51547 7.60834 422 ft 9 kts 251°
2026-05-06 18:22 51.51532 7.60745 419 ft 7 kts 251°
2026-05-06 18:22 51.51527 7.60694 418 ft 3 kts 273°
2026-05-06 18:23 51.51527 7.60689 418 ft 0 kts 277°
2026-05-06 18:30 51.51528 7.60685 418 ft 0 kts 280°
2026-05-06 18:31 51.51574 7.60595 418 ft 20 kts
2026-05-06 18:31 51.51688 7.60825 419 ft 37 kts 60°
2026-05-06 18:31 51.51855 7.61288 412 ft 59 kts 60°
2026-05-06 18:31 51.52072 7.61931 466 ft 70 kts 60°
2026-05-06 18:32 51.52286 7.62592 628 ft 65 kts 61°
2026-05-06 18:32 51.52511 7.63265 735 ft 69 kts 50°
2026-05-06 18:32 51.52946 7.63332 840 ft 70 kts 321°
2026-05-06 18:32 51.53225 7.62737 957 ft 73 kts 255°
2026-05-06 18:33 51.52955 7.62121 1186 ft 59 kts 240°
2026-05-06 18:33 51.52758 7.61549 1219 ft 68 kts 246°
2026-05-06 18:33 51.52710 7.60813 1310 ft 74 kts 269°
2026-05-06 18:33 51.52556 7.60071 1546 ft 56 kts 248°
2026-05-06 18:34 51.52404 7.59472 1631 ft 72 kts 251°
2026-05-06 18:34 51.52277 7.58933 1871 ft 50 kts 248°
2026-05-06 18:34 51.51959 7.58517 1579 ft 101 kts 169°
2026-05-06 18:34 51.51313 7.59356 1147 ft 134 kts 103°
2026-05-06 18:35 51.51521 7.60299 835 ft 142 kts 61°
2026-05-06 18:35 51.52018 7.61734 414 ft 138 kts 58°
2026-05-06 18:35 51.52437 7.62593 823 ft 52 kts 327°
2026-05-06 18:35 51.52775 7.62230 838 ft 66 kts 322°
2026-05-06 18:36 51.53140 7.61854 989 ft 64 kts 325°
2026-05-06 18:36 51.53171 7.61333 1080 ft 51 kts 248°
2026-05-06 18:36 51.52945 7.60817 1197 ft 53 kts 230°
2026-05-06 18:36 51.52667 7.60346 1316 ft 59 kts 229°
2026-05-06 18:37 51.52382 7.59882 1461 ft 62 kts 226°
2026-05-06 18:37 51.52135 7.59312 1606 ft 64 kts 239°
2026-05-06 18:37 51.51894 7.58718 1788 ft 62 kts 239°
2026-05-06 18:37 51.51659 7.58161 1921 ft 56 kts 237°
2026-05-06 18:38 51.51436 7.57715 1997 ft 54 kts 256°
2026-05-06 18:38 51.51313 7.57137 1994 ft 63 kts 253°
2026-05-06 18:38 51.50991 7.56743 1990 ft 76 kts 154°
2026-05-06 18:38 51.50829 7.57783 1239 ft 143 kts 76°
2026-05-06 18:39 51.51239 7.59392 675 ft 156 kts 65°
2026-05-06 18:39 51.51704 7.60829 426 ft 100 kts 60°
2026-05-06 18:39 51.51933 7.61499 415 ft 50 kts 59°
2026-05-06 18:40 51.52298 7.62420 429 ft 57 kts 32°
2026-05-06 18:40 51.52729 7.62366 486 ft 67 kts 326°
2026-05-06 18:40 51.52976 7.61956 637 ft 57 kts 243°
2026-05-06 18:40 51.52839 7.61477 1096 ft 64 kts 246°
2026-05-06 18:41 51.52634 7.60849 1066 ft 69 kts 244°
2026-05-06 18:41 51.52481 7.60346 1148 ft 54 kts 244°
2026-05-06 18:41 51.52284 7.59791 1145 ft 57 kts 239°
2026-05-06 18:41 51.52239 7.59241 1098 ft 59 kts 301°
2026-05-06 18:42 51.52560 7.58816 1062 ft 49 kts 354°
2026-05-06 18:42 51.52896 7.59282 948 ft 59 kts 56°
2026-05-06 18:42 51.53131 7.59812 964 ft 53 kts 52°
2026-05-06 18:42 51.53431 7.59930 958 ft 46 kts 321°
2026-05-06 18:43 51.53235 7.59773 825 ft 66 kts 157°
2026-05-06 18:43 51.52882 7.59920 854 ft 53 kts 258°
2026-05-06 18:43 51.52947 7.60102 856 ft 49 kts 169°
2026-05-06 18:43 51.52866 7.60650 766 ft 61 kts 75°
2026-05-06 18:44 51.52786 7.60586 612 ft 70 kts 184°
2026-05-06 18:44 51.52330 7.60465 618 ft 65 kts 203°
2026-05-06 18:44 51.52019 7.60091 620 ft 59 kts 232°
2026-05-06 18:44 51.51752 7.59581 612 ft 60 kts 221°
2026-05-06 18:45 51.51367 7.59740 564 ft 64 kts 137°
2026-05-06 18:45 51.51460 7.60290 482 ft 65 kts 46°
2026-05-06 18:45 51.51667 7.60906 429 ft 66 kts 42°
2026-05-06 18:45 51.51934 7.61521 621 ft 38 kts 30°
2026-05-06 18:46 51.52291 7.61450 596 ft 55 kts 342°
2026-05-06 18:46 51.52679 7.61247 692 ft 59 kts 353°
2026-05-06 18:46 51.53094 7.61203 749 ft 61 kts 347°
2026-05-06 18:46 51.53385 7.60819 723 ft 61 kts 276°
2026-05-06 18:47 51.53250 7.60389 1240 ft 80 kts 232°
2026-05-06 18:47 51.52939 7.59992 1385 ft 55 kts 190°
2026-05-06 18:47 51.52715 7.59824 1257 ft 44 kts
2026-05-06 18:47 51.52751 7.60376 1004 ft 94 kts 162°
2026-05-06 18:48 51.52160 7.60115 798 ft 98 kts 221°
2026-05-06 18:48 51.51794 7.59520 1154 ft 35 kts 233°
2026-05-06 18:48 51.51469 7.59288 1007 ft 62 kts 218°
2026-05-06 18:48 51.51161 7.59630 799 ft 75 kts 83°
2026-05-06 18:49 51.51439 7.60122 827 ft 56 kts 67°
2026-05-06 18:49 51.51594 7.60655 699 ft 66 kts 49°
2026-05-06 18:49 51.51894 7.61371 440 ft 78 kts 65°
2026-05-06 18:49 51.52112 7.62011 411 ft 55 kts 59°
2026-05-06 18:50 51.52201 7.62332 406 ft 0 kts 225°
2026-05-06 18:50 51.52186 7.62309 419 ft 0 kts 225°
2026-05-06 18:50 51.52031 7.62295 405 ft 0 kts 47°
2026-05-06 18:51 51.52061 7.62347 406 ft 0 kts 47°
2026-05-06 18:51 51.52098 7.62411 412 ft 0 kts 47°
2026-05-06 18:51 51.51965 7.62549 491 ft 59 kts 230°
2026-05-06 18:51 51.51860 7.61910 418 ft 59 kts 244°
2026-05-06 18:52 51.51686 7.61356 420 ft 51 kts 238°
2026-05-06 18:52 51.51503 7.60923 428 ft 43 kts 229°
2026-05-06 18:52 51.51325 7.60632 447 ft 28 kts 224°
2026-05-06 18:52 51.51241 7.60513 456 ft 0 kts 188°